sensor_id;sensor_type;location;lat;lon;timestamp;P1;durP1;ratioP1;P2;durP2;ratioP2
11598;SDS011;5855;48.840;9.188;2022-08-24T00:02:17;4.55;;;3.17;;
11598;SDS011;5855;48.840;9.188;2022-08-24T00:04:44;7.03;;;3.40;;
11598;SDS011;5855;48.840;9.188;2022-08-24T00:07:12;6.97;;;3.95;;
11598;SDS011;5855;48.840;9.188;2022-08-24T00:09:39;4.97;;;3.60;;
11598;SDS011;5855;48.840;9.188;2022-08-24T00:12:07;6.93;;;3.78;;
11598;SDS011;5855;48.840;9.188;2022-08-24T00:14:38;5.20;;;3.58;;
11598;SDS011;5855;48.840;9.188;2022-08-24T00:17:11;5.47;;;3.67;;
11598;SDS011;5855;48.840;9.188;2022-08-24T00:19:38;7.32;;;3.90;;
11598;SDS011;5855;48.840;9.188;2022-08-24T00:22:11;5.00;;;3.88;;
11598;SDS011;5855;48.840;9.188;2022-08-24T00:24:47;7.45;;;3.85;;
11598;SDS011;5855;48.840;9.188;2022-08-24T00:27:14;5.65;;;3.63;;
11598;SDS011;5855;48.840;9.188;2022-08-24T00:29:45;4.10;;;3.65;;
11598;SDS011;5855;48.840;9.188;2022-08-24T00:32:13;5.88;;;3.50;;
11598;SDS011;5855;48.840;9.188;2022-08-24T00:34:40;7.22;;;3.67;;
11598;SDS011;5855;48.840;9.188;2022-08-24T00:37:07;4.53;;;3.42;;
11598;SDS011;5855;48.840;9.188;2022-08-24T00:39:34;6.53;;;3.92;;
11598;SDS011;5855;48.840;9.188;2022-08-24T00:42:01;5.10;;;3.75;;
11598;SDS011;5855;48.840;9.188;2022-08-24T00:44:28;5.03;;;3.80;;
11598;SDS011;5855;48.840;9.188;2022-08-24T00:46:56;4.95;;;4.00;;
11598;SDS011;5855;48.840;9.188;2022-08-24T00:49:37;5.13;;;3.97;;
11598;SDS011;5855;48.840;9.188;2022-08-24T00:52:10;7.47;;;4.40;;
11598;SDS011;5855;48.840;9.188;2022-08-24T00:54:40;5.78;;;4.20;;
11598;SDS011;5855;48.840;9.188;2022-08-24T00:57:10;5.07;;;3.95;;
11598;SDS011;5855;48.840;9.188;2022-08-24T00:59:40;5.72;;;4.15;;
11598;SDS011;5855;48.840;9.188;2022-08-24T01:02:12;6.72;;;4.30;;
11598;SDS011;5855;48.840;9.188;2022-08-24T01:04:44;6.40;;;4.60;;
11598;SDS011;5855;48.840;9.188;2022-08-24T01:07:15;7.35;;;4.13;;
11598;SDS011;5855;48.840;9.188;2022-08-24T01:09:42;5.38;;;4.20;;
11598;SDS011;5855;48.840;9.188;2022-08-24T01:12:09;4.93;;;4.25;;
11598;SDS011;5855;48.840;9.188;2022-08-24T01:14:37;6.18;;;4.57;;
11598;SDS011;5855;48.840;9.188;2022-08-24T01:17:04;5.80;;;4.55;;
11598;SDS011;5855;48.840;9.188;2022-08-24T01:20:05;6.90;;;5.13;;
11598;SDS011;5855;48.840;9.188;2022-08-24T01:25:21;7.88;;;4.50;;
11598;SDS011;5855;48.840;9.188;2022-08-24T01:27:52;6.72;;;4.70;;
11598;SDS011;5855;48.840;9.188;2022-08-24T01:30:21;4.63;;;4.15;;
11598;SDS011;5855;48.840;9.188;2022-08-24T01:32:51;6.35;;;4.40;;
11598;SDS011;5855;48.840;9.188;2022-08-24T01:35:19;7.15;;;4.45;;
11598;SDS011;5855;48.840;9.188;2022-08-24T01:37:46;5.80;;;4.75;;
11598;SDS011;5855;48.840;9.188;2022-08-24T01:40:14;7.35;;;4.75;;
11598;SDS011;5855;48.840;9.188;2022-08-24T01:42:47;7.80;;;4.95;;
11598;SDS011;5855;48.840;9.188;2022-08-24T01:45:15;5.93;;;4.50;;
11598;SDS011;5855;48.840;9.188;2022-08-24T01:47:42;5.85;;;4.93;;
11598;SDS011;5855;48.840;9.188;2022-08-24T01:50:09;6.78;;;4.70;;
11598;SDS011;5855;48.840;9.188;2022-08-24T01:52:37;6.18;;;4.57;;
11598;SDS011;5855;48.840;9.188;2022-08-24T01:55:06;6.38;;;4.70;;
11598;SDS011;5855;48.840;9.188;2022-08-24T01:57:34;6.45;;;4.70;;
11598;SDS011;5855;48.840;9.188;2022-08-24T02:00:04;6.43;;;4.47;;
11598;SDS011;5855;48.840;9.188;2022-08-24T02:02:33;7.47;;;4.65;;
11598;SDS011;5855;48.840;9.188;2022-08-24T02:05:01;7.63;;;4.93;;
11598;SDS011;5855;48.840;9.188;2022-08-24T02:07:28;5.38;;;4.50;;
11598;SDS011;5855;48.840;9.188;2022-08-24T02:09:57;5.63;;;4.32;;
11598;SDS011;5855;48.840;9.188;2022-08-24T02:12:24;6.15;;;4.13;;
11598;SDS011;5855;48.840;9.188;2022-08-24T02:14:51;6.07;;;4.07;;
11598;SDS011;5855;48.840;9.188;2022-08-24T02:17:19;3.90;;;3.45;;
11598;SDS011;5855;48.840;9.188;2022-08-24T02:19:46;5.00;;;3.60;;
11598;SDS011;5855;48.840;9.188;2022-08-24T02:22:13;7.57;;;3.65;;
11598;SDS011;5855;48.840;9.188;2022-08-24T02:24:40;5.35;;;3.83;;
11598;SDS011;5855;48.840;9.188;2022-08-24T02:27:07;4.05;;;3.45;;
11598;SDS011;5855;48.840;9.188;2022-08-24T02:29:34;6.82;;;4.00;;
11598;SDS011;5855;48.840;9.188;2022-08-24T02:32:02;6.53;;;3.70;;
11598;SDS011;5855;48.840;9.188;2022-08-24T02:34:31;5.13;;;3.80;;
11598;SDS011;5855;48.840;9.188;2022-08-24T02:36:58;4.15;;;3.63;;
11598;SDS011;5855;48.840;9.188;2022-08-24T02:39:25;5.18;;;4.07;;
11598;SDS011;5855;48.840;9.188;2022-08-24T02:41:52;4.28;;;3.88;;
11598;SDS011;5855;48.840;9.188;2022-08-24T02:44:18;6.15;;;4.28;;
11598;SDS011;5855;48.840;9.188;2022-08-24T02:46:45;6.60;;;4.13;;
11598;SDS011;5855;48.840;9.188;2022-08-24T02:49:12;4.50;;;4.00;;
11598;SDS011;5855;48.840;9.188;2022-08-24T02:51:42;4.40;;;3.88;;
11598;SDS011;5855;48.840;9.188;2022-08-24T02:54:12;4.82;;;4.13;;
11598;SDS011;5855;48.840;9.188;2022-08-24T02:56:41;5.22;;;4.32;;
11598;SDS011;5855;48.840;9.188;2022-08-24T02:59:08;5.13;;;4.63;;
11598;SDS011;5855;48.840;9.188;2022-08-24T03:01:35;4.75;;;4.30;;
11598;SDS011;5855;48.840;9.188;2022-08-24T03:04:02;6.55;;;4.47;;
11598;SDS011;5855;48.840;9.188;2022-08-24T03:06:29;5.07;;;4.43;;
11598;SDS011;5855;48.840;9.188;2022-08-24T03:08:58;4.85;;;4.45;;
11598;SDS011;5855;48.840;9.188;2022-08-24T03:11:25;8.38;;;4.78;;
11598;SDS011;5855;48.840;9.188;2022-08-24T03:13:51;6.53;;;5.00;;
11598;SDS011;5855;48.840;9.188;2022-08-24T03:16:19;7.70;;;4.93;;
11598;SDS011;5855;48.840;9.188;2022-08-24T03:18:46;6.78;;;4.80;;
11598;SDS011;5855;48.840;9.188;2022-08-24T03:21:13;5.00;;;4.60;;
11598;SDS011;5855;48.840;9.188;2022-08-24T03:23:40;6.32;;;4.65;;
11598;SDS011;5855;48.840;9.188;2022-08-24T03:26:08;4.78;;;4.22;;
11598;SDS011;5855;48.840;9.188;2022-08-24T03:28:35;5.03;;;4.45;;
11598;SDS011;5855;48.840;9.188;2022-08-24T03:31:02;6.30;;;4.20;;
11598;SDS011;5855;48.840;9.188;2022-08-24T03:33:29;6.57;;;4.45;;
11598;SDS011;5855;48.840;9.188;2022-08-24T03:35:56;6.45;;;4.72;;
11598;SDS011;5855;48.840;9.188;2022-08-24T03:38:23;7.55;;;4.60;;
11598;SDS011;5855;48.840;9.188;2022-08-24T03:40:50;6.25;;;4.80;;
11598;SDS011;5855;48.840;9.188;2022-08-24T03:43:18;6.80;;;4.57;;
11598;SDS011;5855;48.840;9.188;2022-08-24T03:46:04;5.45;;;4.93;;
11598;SDS011;5855;48.840;9.188;2022-08-24T03:48:32;6.68;;;4.18;;
11598;SDS011;5855;48.840;9.188;2022-08-24T03:51:00;5.60;;;4.30;;
11598;SDS011;5855;48.840;9.188;2022-08-24T03:53:27;4.90;;;4.40;;
11598;SDS011;5855;48.840;9.188;2022-08-24T03:55:54;4.93;;;4.45;;
11598;SDS011;5855;48.840;9.188;2022-08-24T03:58:22;5.55;;;4.45;;
11598;SDS011;5855;48.840;9.188;2022-08-24T04:00:49;8.02;;;4.70;;
11598;SDS011;5855;48.840;9.188;2022-08-24T04:03:16;7.25;;;4.40;;
11598;SDS011;5855;48.840;9.188;2022-08-24T04:05:43;6.13;;;4.63;;
11598;SDS011;5855;48.840;9.188;2022-08-24T04:08:10;6.85;;;4.60;;
11598;SDS011;5855;48.840;9.188;2022-08-24T04:10:42;5.68;;;5.07;;
11598;SDS011;5855;48.840;9.188;2022-08-24T04:13:10;5.15;;;4.65;;
11598;SDS011;5855;48.840;9.188;2022-08-24T04:15:39;6.90;;;5.32;;
11598;SDS011;5855;48.840;9.188;2022-08-24T04:18:07;7.00;;;4.63;;
11598;SDS011;5855;48.840;9.188;2022-08-24T04:20:36;7.45;;;5.00;;
11598;SDS011;5855;48.840;9.188;2022-08-24T04:23:04;8.63;;;5.38;;
11598;SDS011;5855;48.840;9.188;2022-08-24T04:25:37;9.93;;;5.78;;
11598;SDS011;5855;48.840;9.188;2022-08-24T04:28:05;7.63;;;5.65;;
11598;SDS011;5855;48.840;9.188;2022-08-24T04:30:32;8.65;;;5.57;;
11598;SDS011;5855;48.840;9.188;2022-08-24T04:33:00;6.22;;;4.80;;
11598;SDS011;5855;48.840;9.188;2022-08-24T04:35:27;6.72;;;5.80;;
11598;SDS011;5855;48.840;9.188;2022-08-24T04:37:54;5.85;;;5.25;;
11598;SDS011;5855;48.840;9.188;2022-08-24T04:40:21;6.38;;;5.70;;
11598;SDS011;5855;48.840;9.188;2022-08-24T04:42:48;9.15;;;6.03;;
11598;SDS011;5855;48.840;9.188;2022-08-24T04:45:15;9.43;;;6.18;;
11598;SDS011;5855;48.840;9.188;2022-08-24T04:47:42;9.07;;;5.90;;
11598;SDS011;5855;48.840;9.188;2022-08-24T04:50:11;6.22;;;5.57;;
11598;SDS011;5855;48.840;9.188;2022-08-24T04:52:38;9.48;;;6.45;;
11598;SDS011;5855;48.840;9.188;2022-08-24T04:55:05;6.22;;;5.63;;
11598;SDS011;5855;48.840;9.188;2022-08-24T04:57:32;6.80;;;6.10;;
11598;SDS011;5855;48.840;9.188;2022-08-24T04:59:59;10.27;;;5.90;;
11598;SDS011;5855;48.840;9.188;2022-08-24T05:02:27;7.15;;;5.88;;
11598;SDS011;5855;48.840;9.188;2022-08-24T05:04:54;7.30;;;5.60;;
11598;SDS011;5855;48.840;9.188;2022-08-24T05:07:23;8.27;;;5.63;;
11598;SDS011;5855;48.840;9.188;2022-08-24T05:09:53;6.43;;;5.82;;
11598;SDS011;5855;48.840;9.188;2022-08-24T05:12:20;9.18;;;6.10;;
11598;SDS011;5855;48.840;9.188;2022-08-24T05:14:48;6.10;;;5.45;;
11598;SDS011;5855;48.840;9.188;2022-08-24T05:17:15;9.02;;;6.30;;
11598;SDS011;5855;48.840;9.188;2022-08-24T05:19:42;7.75;;;5.88;;
11598;SDS011;5855;48.840;9.188;2022-08-24T05:22:09;8.88;;;5.78;;
11598;SDS011;5855;48.840;9.188;2022-08-24T05:24:37;9.00;;;5.70;;
11598;SDS011;5855;48.840;9.188;2022-08-24T05:27:04;9.75;;;5.75;;
11598;SDS011;5855;48.840;9.188;2022-08-24T05:29:31;6.78;;;5.72;;
11598;SDS011;5855;48.840;9.188;2022-08-24T05:31:58;6.95;;;5.80;;
11598;SDS011;5855;48.840;9.188;2022-08-24T05:34:26;8.85;;;5.72;;
11598;SDS011;5855;48.840;9.188;2022-08-24T05:36:52;9.85;;;5.53;;
11598;SDS011;5855;48.840;9.188;2022-08-24T05:39:19;9.20;;;5.80;;
11598;SDS011;5855;48.840;9.188;2022-08-24T05:41:48;7.05;;;5.68;;
11598;SDS011;5855;48.840;9.188;2022-08-24T05:44:15;9.07;;;5.90;;
11598;SDS011;5855;48.840;9.188;2022-08-24T05:46:43;7.57;;;5.53;;
11598;SDS011;5855;48.840;9.188;2022-08-24T05:49:10;7.70;;;5.47;;
11598;SDS011;5855;48.840;9.188;2022-08-24T05:51:38;6.75;;;5.15;;
11598;SDS011;5855;48.840;9.188;2022-08-24T05:54:06;7.03;;;5.50;;
11598;SDS011;5855;48.840;9.188;2022-08-24T05:56:33;10.00;;;6.20;;
11598;SDS011;5855;48.840;9.188;2022-08-24T05:59:02;6.80;;;5.65;;
11598;SDS011;5855;48.840;9.188;2022-08-24T06:01:29;9.15;;;5.80;;
11598;SDS011;5855;48.840;9.188;2022-08-24T06:03:57;8.70;;;5.40;;
11598;SDS011;5855;48.840;9.188;2022-08-24T06:06:25;5.22;;;4.68;;
11598;SDS011;5855;48.840;9.188;2022-08-24T06:08:54;9.13;;;5.28;;
11598;SDS011;5855;48.840;9.188;2022-08-24T06:11:24;10.27;;;5.20;;
11598;SDS011;5855;48.840;9.188;2022-08-24T06:13:52;6.78;;;4.88;;
11598;SDS011;5855;48.840;9.188;2022-08-24T06:16:22;11.85;;;5.30;;
11598;SDS011;5855;48.840;9.188;2022-08-24T06:18:49;8.60;;;5.28;;
11598;SDS011;5855;48.840;9.188;2022-08-24T06:21:19;9.00;;;4.90;;
11598;SDS011;5855;48.840;9.188;2022-08-24T06:23:48;8.02;;;4.68;;
11598;SDS011;5855;48.840;9.188;2022-08-24T06:26:16;9.30;;;5.22;;
11598;SDS011;5855;48.840;9.188;2022-08-24T06:29:01;9.98;;;5.05;;
11598;SDS011;5855;48.840;9.188;2022-08-24T06:31:33;5.00;;;4.50;;
11598;SDS011;5855;48.840;9.188;2022-08-24T06:34:01;8.40;;;4.65;;
11598;SDS011;5855;48.840;9.188;2022-08-24T06:36:28;5.80;;;4.70;;
11598;SDS011;5855;48.840;9.188;2022-08-24T06:38:55;7.53;;;4.38;;
11598;SDS011;5855;48.840;9.188;2022-08-24T06:41:21;5.95;;;4.43;;
11598;SDS011;5855;48.840;9.188;2022-08-24T06:43:49;7.53;;;4.20;;
11598;SDS011;5855;48.840;9.188;2022-08-24T06:46:17;12.15;;;4.72;;
11598;SDS011;5855;48.840;9.188;2022-08-24T06:48:45;7.78;;;4.70;;
11598;SDS011;5855;48.840;9.188;2022-08-24T06:51:13;6.88;;;4.35;;
11598;SDS011;5855;48.840;9.188;2022-08-24T06:53:42;8.13;;;4.13;;
11598;SDS011;5855;48.840;9.188;2022-08-24T06:56:09;6.75;;;3.90;;
11598;SDS011;5855;48.840;9.188;2022-08-24T06:58:37;5.50;;;3.67;;
11598;SDS011;5855;48.840;9.188;2022-08-24T07:01:08;6.45;;;3.65;;
11598;SDS011;5855;48.840;9.188;2022-08-24T07:03:36;8.32;;;3.75;;
11598;SDS011;5855;48.840;9.188;2022-08-24T07:06:05;8.27;;;3.85;;
11598;SDS011;5855;48.840;9.188;2022-08-24T07:08:33;5.65;;;3.60;;
11598;SDS011;5855;48.840;9.188;2022-08-24T07:11:00;4.05;;;3.30;;
11598;SDS011;5855;48.840;9.188;2022-08-24T07:13:28;6.82;;;3.50;;
11598;SDS011;5855;48.840;9.188;2022-08-24T07:15:55;5.38;;;3.60;;
11598;SDS011;5855;48.840;9.188;2022-08-24T07:18:22;6.70;;;3.35;;
11598;SDS011;5855;48.840;9.188;2022-08-24T07:20:49;5.65;;;3.72;;
11598;SDS011;5855;48.840;9.188;2022-08-24T07:23:18;8.48;;;3.60;;
11598;SDS011;5855;48.840;9.188;2022-08-24T07:25:46;6.80;;;3.30;;
11598;SDS011;5855;48.840;9.188;2022-08-24T07:28:13;7.45;;;3.60;;
11598;SDS011;5855;48.840;9.188;2022-08-24T07:30:40;8.23;;;3.40;;
11598;SDS011;5855;48.840;9.188;2022-08-24T07:33:08;6.88;;;2.85;;
11598;SDS011;5855;48.840;9.188;2022-08-24T07:35:35;6.03;;;2.97;;
11598;SDS011;5855;48.840;9.188;2022-08-24T07:38:02;7.78;;;3.05;;
11598;SDS011;5855;48.840;9.188;2022-08-24T07:40:32;4.72;;;2.97;;
11598;SDS011;5855;48.840;9.188;2022-08-24T07:42:59;4.22;;;2.42;;
11598;SDS011;5855;48.840;9.188;2022-08-24T07:45:26;7.95;;;2.53;;
11598;SDS011;5855;48.840;9.188;2022-08-24T07:47:55;4.22;;;2.53;;
11598;SDS011;5855;48.840;9.188;2022-08-24T07:50:22;4.15;;;2.63;;
11598;SDS011;5855;48.840;9.188;2022-08-24T07:52:49;4.22;;;2.90;;
11598;SDS011;5855;48.840;9.188;2022-08-24T07:55:16;4.68;;;2.95;;
11598;SDS011;5855;48.840;9.188;2022-08-24T07:57:45;9.57;;;2.92;;
11598;SDS011;5855;48.840;9.188;2022-08-24T08:00:13;7.68;;;2.55;;
11598;SDS011;5855;48.840;9.188;2022-08-24T08:02:43;3.65;;;2.38;;
11598;SDS011;5855;48.840;9.188;2022-08-24T08:05:11;5.53;;;2.45;;
11598;SDS011;5855;48.840;9.188;2022-08-24T08:07:39;5.38;;;2.40;;
11598;SDS011;5855;48.840;9.188;2022-08-24T08:10:06;6.40;;;2.20;;
11598;SDS011;5855;48.840;9.188;2022-08-24T08:12:35;3.40;;;2.13;;
11598;SDS011;5855;48.840;9.188;2022-08-24T08:15:04;3.72;;;2.28;;
11598;SDS011;5855;48.840;9.188;2022-08-24T08:17:33;4.95;;;2.00;;
11598;SDS011;5855;48.840;9.188;2022-08-24T08:20:00;4.00;;;2.33;;
11598;SDS011;5855;48.840;9.188;2022-08-24T08:22:27;4.75;;;1.90;;
11598;SDS011;5855;48.840;9.188;2022-08-24T08:25:11;2.28;;;1.90;;
11598;SDS011;5855;48.840;9.188;2022-08-24T08:27:38;4.20;;;2.17;;
11598;SDS011;5855;48.840;9.188;2022-08-24T08:30:07;2.25;;;1.90;;
11598;SDS011;5855;48.840;9.188;2022-08-24T08:32:35;4.63;;;1.90;;
11598;SDS011;5855;48.840;9.188;2022-08-24T08:35:02;3.17;;;1.73;;
11598;SDS011;5855;48.840;9.188;2022-08-24T08:37:29;2.92;;;1.85;;
11598;SDS011;5855;48.840;9.188;2022-08-24T08:39:56;4.30;;;1.70;;
11598;SDS011;5855;48.840;9.188;2022-08-24T08:42:37;4.13;;;1.75;;
11598;SDS011;5855;48.840;9.188;2022-08-24T08:45:26;2.83;;;1.60;;
11598;SDS011;5855;48.840;9.188;2022-08-24T08:48:16;1.85;;;1.38;;
11598;SDS011;5855;48.840;9.188;2022-08-24T08:51:20;3.63;;;1.50;;
11598;SDS011;5855;48.840;9.188;2022-08-24T08:54:13;2.97;;;1.30;;
11598;SDS011;5855;48.840;9.188;2022-08-24T08:57:02;2.22;;;1.60;;
11598;SDS011;5855;48.840;9.188;2022-08-24T08:59:51;1.90;;;1.52;;
11598;SDS011;5855;48.840;9.188;2022-08-24T09:02:40;2.80;;;1.70;;
11598;SDS011;5855;48.840;9.188;2022-08-24T09:08:26;1.80;;;1.40;;
11598;SDS011;5855;48.840;9.188;2022-08-24T09:11:09;1.65;;;1.50;;
11598;SDS011;5855;48.840;9.188;2022-08-24T09:13:51;2.20;;;1.20;;
11598;SDS011;5855;48.840;9.188;2022-08-24T09:16:39;3.70;;;1.50;;
11598;SDS011;5855;48.840;9.188;2022-08-24T09:19:30;2.92;;;1.90;;
11598;SDS011;5855;48.840;9.188;2022-08-24T09:22:16;4.18;;;2.33;;
11598;SDS011;5855;48.840;9.188;2022-08-24T09:33:48;2.55;;;1.27;;
11598;SDS011;5855;48.840;9.188;2022-08-24T09:36:26;1.92;;;1.38;;
11598;SDS011;5855;48.840;9.188;2022-08-24T09:39:11;1.23;;;1.13;;
11598;SDS011;5855;48.840;9.188;2022-08-24T09:41:59;3.13;;;1.33;;
11598;SDS011;5855;48.840;9.188;2022-08-24T09:44:49;1.20;;;1.08;;
11598;SDS011;5855;48.840;9.188;2022-08-24T09:47:40;1.20;;;1.10;;
11598;SDS011;5855;48.840;9.188;2022-08-24T09:50:50;2.85;;;1.27;;
11598;SDS011;5855;48.840;9.188;2022-08-24T09:53:46;1.50;;;1.30;;
11598;SDS011;5855;48.840;9.188;2022-08-24T09:56:39;1.35;;;1.00;;
11598;SDS011;5855;48.840;9.188;2022-08-24T09:59:20;1.42;;;1.33;;
11598;SDS011;5855;48.840;9.188;2022-08-24T10:02:16;2.30;;;1.10;;
11598;SDS011;5855;48.840;9.188;2022-08-24T10:04:55;2.97;;;1.20;;
11598;SDS011;5855;48.840;9.188;2022-08-24T10:07:30;2.65;;;1.20;;
11598;SDS011;5855;48.840;9.188;2022-08-24T10:10:10;1.63;;;1.20;;
11598;SDS011;5855;48.840;9.188;2022-08-24T10:12:53;1.30;;;1.20;;
11598;SDS011;5855;48.840;9.188;2022-08-24T10:15:28;1.50;;;1.20;;
11598;SDS011;5855;48.840;9.188;2022-08-24T10:18:06;1.60;;;1.30;;
11598;SDS011;5855;48.840;9.188;2022-08-24T10:20:50;1.00;;;0.98;;
11598;SDS011;5855;48.840;9.188;2022-08-24T10:23:37;1.77;;;1.08;;
11598;SDS011;5855;48.840;9.188;2022-08-24T10:26:18;2.38;;;1.00;;
11598;SDS011;5855;48.840;9.188;2022-08-24T10:31:50;1.52;;;1.05;;
11598;SDS011;5855;48.840;9.188;2022-08-24T10:34:38;1.70;;;1.13;;
11598;SDS011;5855;48.840;9.188;2022-08-24T10:37:23;1.23;;;1.00;;
11598;SDS011;5855;48.840;9.188;2022-08-24T10:40:06;1.50;;;0.90;;
11598;SDS011;5855;48.840;9.188;2022-08-24T10:49:29;1.17;;;1.08;;
11598;SDS011;5855;48.840;9.188;2022-08-24T10:55:21;0.93;;;0.93;;
11598;SDS011;5855;48.840;9.188;2022-08-24T10:57:54;2.97;;;1.15;;
11598;SDS011;5855;48.840;9.188;2022-08-24T11:00:37;1.20;;;1.10;;
11598;SDS011;5855;48.840;9.188;2022-08-24T11:03:05;1.55;;;1.20;;
11598;SDS011;5855;48.840;9.188;2022-08-24T11:05:36;1.33;;;1.10;;
11598;SDS011;5855;48.840;9.188;2022-08-24T11:08:11;2.17;;;0.90;;
11598;SDS011;5855;48.840;9.188;2022-08-24T11:10:46;3.80;;;1.00;;
11598;SDS011;5855;48.840;9.188;2022-08-24T11:13:30;2.38;;;1.23;;
11598;SDS011;5855;48.840;9.188;2022-08-24T11:16:00;1.38;;;1.15;;
11598;SDS011;5855;48.840;9.188;2022-08-24T11:18:44;3.92;;;1.45;;
11598;SDS011;5855;48.840;9.188;2022-08-24T11:21:17;1.20;;;1.10;;
11598;SDS011;5855;48.840;9.188;2022-08-24T11:24:01;2.60;;;0.90;;
11598;SDS011;5855;48.840;9.188;2022-08-24T11:26:30;1.55;;;1.00;;
11598;SDS011;5855;48.840;9.188;2022-08-24T11:29:02;0.98;;;0.90;;
11598;SDS011;5855;48.840;9.188;2022-08-24T11:31:32;1.95;;;0.90;;
11598;SDS011;5855;48.840;9.188;2022-08-24T11:34:04;1.67;;;0.80;;
11598;SDS011;5855;48.840;9.188;2022-08-24T11:36:34;1.45;;;0.80;;
11598;SDS011;5855;48.840;9.188;2022-08-24T11:39:10;0.90;;;0.90;;
11598;SDS011;5855;48.840;9.188;2022-08-24T11:41:46;1.17;;;0.90;;
11598;SDS011;5855;48.840;9.188;2022-08-24T11:44:20;1.38;;;0.90;;
11598;SDS011;5855;48.840;9.188;2022-08-24T11:47:04;2.15;;;1.00;;
11598;SDS011;5855;48.840;9.188;2022-08-24T11:49:50;0.77;;;0.77;;
11598;SDS011;5855;48.840;9.188;2022-08-24T11:52:29;1.20;;;0.80;;
11598;SDS011;5855;48.840;9.188;2022-08-24T11:55:04;2.05;;;1.08;;
11598;SDS011;5855;48.840;9.188;2022-08-24T11:57:37;1.70;;;0.98;;
11598;SDS011;5855;48.840;9.188;2022-08-24T12:00:10;0.80;;;0.80;;
11598;SDS011;5855;48.840;9.188;2022-08-24T12:02:42;1.50;;;0.90;;
11598;SDS011;5855;48.840;9.188;2022-08-24T12:05:19;2.97;;;1.00;;
11598;SDS011;5855;48.840;9.188;2022-08-24T12:08:00;0.90;;;0.90;;
11598;SDS011;5855;48.840;9.188;2022-08-24T12:10:37;0.80;;;0.80;;
11598;SDS011;5855;48.840;9.188;2022-08-24T12:13:16;0.95;;;0.82;;
11598;SDS011;5855;48.840;9.188;2022-08-24T12:15:53;0.90;;;0.90;;
11598;SDS011;5855;48.840;9.188;2022-08-24T12:18:29;0.90;;;0.90;;
11598;SDS011;5855;48.840;9.188;2022-08-24T12:21:11;1.48;;;0.90;;
11598;SDS011;5855;48.840;9.188;2022-08-24T12:23:40;0.82;;;0.82;;
11598;SDS011;5855;48.840;9.188;2022-08-24T12:26:10;1.73;;;0.80;;
11598;SDS011;5855;48.840;9.188;2022-08-24T12:28:41;1.25;;;0.80;;
11598;SDS011;5855;48.840;9.188;2022-08-24T12:31:15;0.60;;;0.60;;
11598;SDS011;5855;48.840;9.188;2022-08-24T12:33:46;1.35;;;0.80;;
11598;SDS011;5855;48.840;9.188;2022-08-24T12:36:17;0.85;;;0.75;;
11598;SDS011;5855;48.840;9.188;2022-08-24T12:38:52;1.30;;;0.90;;
11598;SDS011;5855;48.840;9.188;2022-08-24T12:41:30;1.00;;;0.77;;
11598;SDS011;5855;48.840;9.188;2022-08-24T12:44:01;0.95;;;0.85;;
11598;SDS011;5855;48.840;9.188;2022-08-24T12:46:31;0.85;;;0.80;;
11598;SDS011;5855;48.840;9.188;2022-08-24T12:49:02;0.70;;;0.70;;
11598;SDS011;5855;48.840;9.188;2022-08-24T12:51:38;0.70;;;0.70;;
11598;SDS011;5855;48.840;9.188;2022-08-24T12:54:22;0.80;;;0.80;;
11598;SDS011;5855;48.840;9.188;2022-08-24T12:59:57;0.73;;;0.60;;
11598;SDS011;5855;48.840;9.188;2022-08-24T13:02:32;0.98;;;0.90;;
11598;SDS011;5855;48.840;9.188;2022-08-24T13:05:07;0.60;;;0.60;;
11598;SDS011;5855;48.840;9.188;2022-08-24T13:07:38;0.50;;;0.43;;
11598;SDS011;5855;48.840;9.188;2022-08-24T13:10:09;0.65;;;0.63;;
11598;SDS011;5855;48.840;9.188;2022-08-24T13:12:49;0.70;;;0.70;;
11598;SDS011;5855;48.840;9.188;2022-08-24T13:21:44;1.73;;;0.63;;
11598;SDS011;5855;48.840;9.188;2022-08-24T13:30:29;1.13;;;0.80;;
11598;SDS011;5855;48.840;9.188;2022-08-24T13:33:05;0.60;;;0.60;;
11598;SDS011;5855;48.840;9.188;2022-08-24T13:35:50;1.55;;;0.70;;
11598;SDS011;5855;48.840;9.188;2022-08-24T13:38:42;0.70;;;0.70;;
11598;SDS011;5855;48.840;9.188;2022-08-24T13:41:30;1.10;;;0.60;;
11598;SDS011;5855;48.840;9.188;2022-08-24T13:44:12;1.30;;;0.70;;
11598;SDS011;5855;48.840;9.188;2022-08-24T13:47:15;0.98;;;0.80;;
11598;SDS011;5855;48.840;9.188;2022-08-24T13:49:52;0.80;;;0.63;;
11598;SDS011;5855;48.840;9.188;2022-08-24T13:52:31;0.73;;;0.70;;
11598;SDS011;5855;48.840;9.188;2022-08-24T13:55:13;0.90;;;0.77;;
11598;SDS011;5855;48.840;9.188;2022-08-24T13:58:06;1.52;;;0.63;;
11598;SDS011;5855;48.840;9.188;2022-08-24T14:00:40;0.77;;;0.60;;
11598;SDS011;5855;48.840;9.188;2022-08-24T14:06:24;0.70;;;0.70;;
11598;SDS011;5855;48.840;9.188;2022-08-24T14:09:00;0.60;;;0.60;;
11598;SDS011;5855;48.840;9.188;2022-08-24T14:11:57;1.83;;;0.80;;
11598;SDS011;5855;48.840;9.188;2022-08-24T14:14:48;1.42;;;0.70;;
11598;SDS011;5855;48.840;9.188;2022-08-24T14:17:29;0.73;;;0.60;;
11598;SDS011;5855;48.840;9.188;2022-08-24T14:20:28;1.42;;;0.80;;
11598;SDS011;5855;48.840;9.188;2022-08-24T14:23:11;1.58;;;0.60;;
11598;SDS011;5855;48.840;9.188;2022-08-24T14:28:53;0.80;;;0.80;;
11598;SDS011;5855;48.840;9.188;2022-08-24T14:31:40;0.75;;;0.75;;
11598;SDS011;5855;48.840;9.188;2022-08-24T14:34:30;0.98;;;0.75;;
11598;SDS011;5855;48.840;9.188;2022-08-24T14:37:04;0.95;;;0.70;;
11598;SDS011;5855;48.840;9.188;2022-08-24T14:39:45;1.60;;;0.65;;
11598;SDS011;5855;48.840;9.188;2022-08-24T14:42:20;1.00;;;0.80;;
11598;SDS011;5855;48.840;9.188;2022-08-24T14:45:00;0.70;;;0.70;;
11598;SDS011;5855;48.840;9.188;2022-08-24T14:47:37;0.93;;;0.90;;
11598;SDS011;5855;48.840;9.188;2022-08-24T14:50:13;0.75;;;0.60;;
11598;SDS011;5855;48.840;9.188;2022-08-24T14:55:43;1.05;;;0.70;;
11598;SDS011;5855;48.840;9.188;2022-08-24T14:58:25;0.88;;;0.70;;
11598;SDS011;5855;48.840;9.188;2022-08-24T15:01:04;0.70;;;0.70;;
11598;SDS011;5855;48.840;9.188;2022-08-24T15:04:09;0.70;;;0.70;;
11598;SDS011;5855;48.840;9.188;2022-08-24T15:06:55;0.60;;;0.60;;
11598;SDS011;5855;48.840;9.188;2022-08-24T15:09:33;0.82;;;0.77;;
11598;SDS011;5855;48.840;9.188;2022-08-24T15:12:04;0.98;;;0.80;;
11598;SDS011;5855;48.840;9.188;2022-08-24T15:14:40;0.95;;;0.70;;
11598;SDS011;5855;48.840;9.188;2022-08-24T15:17:14;0.98;;;0.70;;
11598;SDS011;5855;48.840;9.188;2022-08-24T15:19:46;1.95;;;0.70;;
11598;SDS011;5855;48.840;9.188;2022-08-24T15:22:22;1.02;;;0.70;;
11598;SDS011;5855;48.840;9.188;2022-08-24T15:24:52;1.55;;;0.70;;
11598;SDS011;5855;48.840;9.188;2022-08-24T15:27:29;0.75;;;0.75;;
11598;SDS011;5855;48.840;9.188;2022-08-24T15:30:05;0.52;;;0.40;;
11598;SDS011;5855;48.840;9.188;2022-08-24T15:32:45;0.80;;;0.60;;
11598;SDS011;5855;48.840;9.188;2022-08-24T15:35:24;0.80;;;0.80;;
11598;SDS011;5855;48.840;9.188;2022-08-24T15:37:54;0.60;;;0.60;;
11598;SDS011;5855;48.840;9.188;2022-08-24T15:40:23;0.88;;;0.60;;
11598;SDS011;5855;48.840;9.188;2022-08-24T15:42:54;0.82;;;0.57;;
11598;SDS011;5855;48.840;9.188;2022-08-24T15:45:22;0.75;;;0.52;;
11598;SDS011;5855;48.840;9.188;2022-08-24T15:47:51;0.70;;;0.70;;
11598;SDS011;5855;48.840;9.188;2022-08-24T15:50:20;0.70;;;0.70;;
11598;SDS011;5855;48.840;9.188;2022-08-24T15:52:51;0.65;;;0.65;;
11598;SDS011;5855;48.840;9.188;2022-08-24T15:55:31;0.73;;;0.50;;
11598;SDS011;5855;48.840;9.188;2022-08-24T15:58:14;1.00;;;0.80;;
11598;SDS011;5855;48.840;9.188;2022-08-24T16:00:52;0.60;;;0.60;;
11598;SDS011;5855;48.840;9.188;2022-08-24T16:03:46;0.90;;;0.70;;
11598;SDS011;5855;48.840;9.188;2022-08-24T16:06:17;1.50;;;0.80;;
11598;SDS011;5855;48.840;9.188;2022-08-24T16:09:00;0.80;;;0.50;;
11598;SDS011;5855;48.840;9.188;2022-08-24T16:11:31;1.60;;;0.70;;
11598;SDS011;5855;48.840;9.188;2022-08-24T16:14:02;0.77;;;0.77;;
11598;SDS011;5855;48.840;9.188;2022-08-24T16:19:55;0.60;;;0.60;;
11598;SDS011;5855;48.840;9.188;2022-08-24T16:22:25;1.33;;;0.77;;
11598;SDS011;5855;48.840;9.188;2022-08-24T16:25:16;1.48;;;0.80;;
11598;SDS011;5855;48.840;9.188;2022-08-24T16:27:54;1.35;;;0.80;;
11598;SDS011;5855;48.840;9.188;2022-08-24T16:30:37;1.10;;;1.00;;
11598;SDS011;5855;48.840;9.188;2022-08-24T16:33:34;1.00;;;0.90;;